Terminal Aerodrome Forecast
Issued by NWS Cleveland, OH

Home | Current Version | Previous Version | Graphics & Text | Print | Product List | Glossary On
Versions: 1 2 3 4 5 6 7 8 9 10 11 12 13 14 15 16 17 18 19 20
987
FTUS41 KCLE 161351 AAA
TAFYNG
TAF AMD
KYNG 161351Z 1614/1712 22012KT 5SM -SN OVC050
      TEMPO 1614/1616 2SM -SN OVC025
     FM161600 24010KT 6SM BR VCSH BKN030 OVC060
     FM162200 VRB04KT P6SM SCT035 BKN090
     FM170300 15004KT P6SM SCT035 BKN100=

USA.gov is the U.S. government's official web portal to all federal, state and local government web resources and services.